Weston, WY

23:07 MDT le 27 août 2016 (GMT -0600)
Gillette-Campbell County | | Change Station

Alt. 4364 ft 44.34 °N, 105.54 °W | Updated 14 minutes ago

Clear
Ciel dégagé
53 ° F
Paraît 53 ° F
N
5
Vent Variable Vent de SSO

Aujourd'hui
Haut(e) -- | Bas -- ° F
--% Risque de précip.
Hier
Haut(e) -- | Bas -- ° F
Precip. -- pouce
Pression 29.85 pouce
Visibilité 10.0 Miles terrestres
Nuages Ciel dégagé
Point de rosée 40 ° F
Humidité 61%
Précipitations 0.01 pouce
Profondeur de la couche neigeuse Non disponible.
6:19 AM 7:46 PM
Lune descendante, 18% visible
METAR KGCC 280453Z AUTO 20004KT 10SM CLR 12/04 A2996 RMK AO2 SLP108 T01170044 $
Pression 29.85 pouce
Visibilité 10.0 Miles terrestres
Nuages Ciel dégagé
Point de rosée 40 ° F
Humidité 61%
Précipitations 0.01 pouce
Profondeur de la couche neigeuse Non disponible.
6:19 AM 7:46 PM
Lune descendante, 18% visible
METAR KGCC 280453Z AUTO 20004KT 10SM CLR 12/04 A2996 RMK AO2 SLP108 T01170044 $

10-Day Weather Forecast

Almanac

Astronomie

Aug. 27, 2016 Lever Coucher
Temps réel
Crépuscule civil
Crépuscule nautique
Crépuscule astronomique
Lune
Durée de lumière visible
Longueur du jour
Tomorrow will be .
, % of the Moon is Illuminated

Extrêmes aujourd'hui

State Highs State Lows

Community

WunderPhotos

Upload Photos

1,935,530 Photos téléchargées !

WunderBlog® & News

Nearby

Qualité de l'air

  Qualité de l'air Indice de la qualité de l'air Polluant
Not available.

Épaisseur de neige

Station Depth Altitude

Activité sismique

Ville Distance Mag. Time & Date
Minimum magnitude displayed is 2.5.

Températures des eaux côtières

Lieu Température

Stations

Stations météo à proximité

Emplacement de la station Température Refroidissement éolien Point de rosée Humidité Vent Precip. Alt. Mise à jour Type
                   

Watches & Warnings

There are currently no watches in effect.